createdAt,value
2022-11-07T00:02:40.184Z,2.77
2022-11-07T00:12:46.014Z,2.73
2022-11-07T00:22:51.689Z,2.73
2022-11-07T00:33:00.213Z,3.00
2022-11-07T00:43:06.125Z,3.28
2022-11-07T00:53:12.019Z,3.43
2022-11-07T01:03:35.184Z,3.59
2022-11-07T01:13:41.415Z,3.84
2022-11-07T01:23:47.098Z,4.09
2022-11-07T01:33:52.721Z,4.27
2022-11-07T01:44:01.754Z,4.41
2022-11-07T01:54:08.374Z,4.50
2022-11-07T02:04:15.099Z,4.57
2022-11-07T02:14:20.928Z,4.63
2022-11-07T02:24:31.393Z,4.74
2022-11-07T02:34:36.991Z,4.88
2022-11-07T02:44:42.560Z,5.02
2022-11-07T02:54:48.103Z,5.16
2022-11-07T03:04:53.910Z,5.29
2022-11-07T03:14:59.497Z,5.39
2022-11-07T03:25:05.605Z,5.49
2022-11-07T03:35:12.287Z,5.61
2022-11-07T03:45:18.708Z,5.70
2022-11-07T03:55:24.351Z,5.80
2022-11-07T04:05:30.416Z,5.88
2022-11-07T04:15:53.710Z,5.66
2022-11-07T04:26:17.079Z,5.42
2022-11-07T04:36:22.712Z,5.24
2022-11-07T04:46:28.292Z,5.13
2022-11-07T04:56:34.665Z,5.05
2022-11-07T05:06:40.428Z,5.00
2022-11-07T05:16:46.237Z,5.00
2022-11-07T05:26:51.958Z,4.98
2022-11-07T05:36:57.540Z,4.92
2022-11-07T05:47:03.064Z,4.95
2022-11-07T05:57:08.647Z,4.94
2022-11-07T06:07:14.209Z,4.92
2022-11-07T06:17:19.758Z,5.09
2022-11-07T06:27:25.403Z,5.38
2022-11-07T06:37:30.991Z,5.73
2022-11-07T06:47:36.583Z,6.19
2022-11-07T06:57:42.127Z,6.71
2022-11-07T07:07:47.894Z,7.19
2022-11-07T07:17:53.472Z,7.91
2022-11-07T07:27:59.040Z,8.83
2022-11-07T07:38:04.604Z,9.36
2022-11-07T07:48:10.653Z,9.56
2022-11-07T07:58:16.611Z,9.42
2022-11-07T08:08:22.279Z,9.13
2022-11-07T08:18:28.009Z,8.86
2022-11-07T08:28:35.466Z,8.77
2022-11-07T08:38:41.133Z,8.84
2022-11-07T08:48:46.683Z,9.03
2022-11-07T08:58:52.665Z,9.28
2022-11-07T09:08:58.264Z,9.33
2022-11-07T09:19:04.046Z,9.42
2022-11-07T09:29:36.574Z,9.59
2022-11-07T09:39:42.342Z,9.53
2022-11-07T09:49:51.214Z,9.62
2022-11-07T09:59:59.928Z,9.71
2022-11-07T10:10:14.910Z,9.73
2022-11-07T10:20:33.486Z,9.95
2022-11-07T10:30:39.344Z,10.09
2022-11-07T10:40:47.102Z,10.16
2022-11-07T10:50:56.498Z,10.21
2022-11-07T11:01:08.074Z,10.28
2022-11-07T11:11:29.282Z,10.41
2022-11-07T11:21:46.649Z,10.86
2022-11-07T11:31:56.525Z,11.30
2022-11-07T11:42:05.003Z,11.15
2022-11-07T11:52:16.589Z,10.88
2022-11-07T12:02:42.277Z,10.43
2022-11-07T12:13:02.683Z,10.14
2022-11-07T12:23:26.543Z,9.97
2022-11-07T12:33:38.215Z,9.74
2022-11-07T12:43:56.248Z,9.44
2022-11-07T12:54:16.215Z,9.40
2022-11-07T13:04:29.571Z,9.42
2022-11-07T13:14:39.102Z,9.32
2022-11-07T13:24:54.593Z,9.26
2022-11-07T13:35:02.905Z,9.14
2022-11-07T13:45:25.662Z,9.06
2022-11-07T13:55:42.451Z,9.06
2022-11-07T14:05:50.376Z,9.00
2022-11-07T14:15:55.751Z,8.88
2022-11-07T14:26:03.570Z,8.77
2022-11-07T14:36:13.285Z,8.67
2022-11-07T14:46:24.006Z,8.59
2022-11-07T14:56:33.936Z,8.48
2022-11-07T15:06:46.139Z,8.43
2022-11-07T15:16:53.177Z,8.40
2022-11-07T15:27:03.474Z,8.37
2022-11-07T15:37:15.967Z,8.35
2022-11-07T15:47:23.324Z,8.24
2022-11-07T15:57:29.054Z,7.94
2022-11-07T16:07:34.905Z,7.79
2022-11-07T16:17:40.590Z,7.74
2022-11-07T16:27:51.346Z,7.74
2022-11-07T16:37:59.845Z,7.77
2022-11-07T16:48:06.345Z,7.80
2022-11-07T16:58:25.268Z,7.83
2022-11-07T17:08:37.336Z,7.88
2022-11-07T17:18:43.264Z,7.92
2022-11-07T17:28:48.914Z,7.95
2022-11-07T17:38:54.819Z,7.99
2022-11-07T17:49:03.401Z,8.05
2022-11-07T17:59:12.893Z,8.07
2022-11-07T18:09:18.577Z,8.02
2022-11-07T18:19:24.179Z,7.70
2022-11-07T18:29:30.125Z,7.32
2022-11-07T18:39:35.898Z,7.05
2022-11-07T18:49:41.536Z,6.98
2022-11-07T18:59:47.489Z,6.85
2022-11-07T19:09:53.058Z,6.58
2022-11-07T19:19:58.666Z,6.29
2022-11-07T19:30:04.420Z,6.01
2022-11-07T19:40:12.006Z,5.81
2022-11-07T19:50:17.791Z,5.63
2022-11-07T20:00:26.006Z,5.38
2022-11-07T20:10:31.755Z,5.32
2022-11-07T20:20:37.495Z,5.17
2022-11-07T20:30:44.535Z,5.08
2022-11-07T20:40:50.495Z,5.36
2022-11-07T20:51:12.512Z,5.62
2022-11-07T21:01:21.183Z,5.87
2022-11-07T21:11:27.373Z,6.16
2022-11-07T21:21:34.584Z,6.33
2022-11-07T21:31:42.096Z,6.34
2022-11-07T21:41:47.805Z,6.28
2022-11-07T21:51:54.044Z,6.35
2022-11-07T22:01:59.975Z,6.49
2022-11-07T22:12:06.040Z,6.58
2022-11-07T22:22:11.711Z,6.62
2022-11-07T22:32:17.307Z,6.62
2022-11-07T22:42:23.989Z,6.66
2022-11-07T22:52:29.691Z,6.67
2022-11-07T23:02:35.594Z,6.74
2022-11-07T23:12:41.346Z,6.84
2022-11-07T23:22:47.123Z,6.92
2022-11-07T23:32:52.699Z,6.99
2022-11-07T23:42:58.326Z,7.04
2022-11-07T23:53:24.793Z,7.05
